sensor_id;sensor_type;location;lat;lon;timestamp;P1;durP1;ratioP1;P2;durP2;ratioP2
16870;SDS011;8552;48.120;-1.456;2023-10-09T00:02:09;5.72;;;2.63;;
16870;SDS011;8552;48.120;-1.456;2023-10-09T00:04:37;3.55;;;2.47;;
16870;SDS011;8552;48.120;-1.456;2023-10-09T00:07:06;4.65;;;2.80;;
16870;SDS011;8552;48.120;-1.456;2023-10-09T00:09:35;6.57;;;2.25;;
16870;SDS011;8552;48.120;-1.456;2023-10-09T00:12:14;5.90;;;2.55;;
16870;SDS011;8552;48.120;-1.456;2023-10-09T00:14:41;4.40;;;2.00;;
16870;SDS011;8552;48.120;-1.456;2023-10-09T00:17:13;4.72;;;2.88;;
16870;SDS011;8552;48.120;-1.456;2023-10-09T00:19:39;3.67;;;2.25;;
16870;SDS011;8552;48.120;-1.456;2023-10-09T00:22:07;4.68;;;2.75;;
16870;SDS011;8552;48.120;-1.456;2023-10-09T00:24:36;5.07;;;2.30;;
16870;SDS011;8552;48.120;-1.456;2023-10-09T00:27:10;6.50;;;2.58;;
16870;SDS011;8552;48.120;-1.456;2023-10-09T00:29:39;5.32;;;2.47;;
16870;SDS011;8552;48.120;-1.456;2023-10-09T00:32:11;3.58;;;2.40;;
16870;SDS011;8552;48.120;-1.456;2023-10-09T00:34:58;4.22;;;2.42;;
16870;SDS011;8552;48.120;-1.456;2023-10-09T00:37:43;4.55;;;2.60;;
16870;SDS011;8552;48.120;-1.456;2023-10-09T00:40:10;4.97;;;2.47;;
16870;SDS011;8552;48.120;-1.456;2023-10-09T00:42:37;3.25;;;2.30;;
16870;SDS011;8552;48.120;-1.456;2023-10-09T00:45:04;2.83;;;2.10;;
16870;SDS011;8552;48.120;-1.456;2023-10-09T00:47:30;5.68;;;2.70;;
16870;SDS011;8552;48.120;-1.456;2023-10-09T00:50:04;4.18;;;2.88;;
16870;SDS011;8552;48.120;-1.456;2023-10-09T00:52:40;4.88;;;2.33;;
16870;SDS011;8552;48.120;-1.456;2023-10-09T00:55:14;2.67;;;1.85;;
16870;SDS011;8552;48.120;-1.456;2023-10-09T00:57:46;2.13;;;1.77;;
16870;SDS011;8552;48.120;-1.456;2023-10-09T01:00:16;2.92;;;1.77;;
16870;SDS011;8552;48.120;-1.456;2023-10-09T01:03:01;2.85;;;1.88;;
16870;SDS011;8552;48.120;-1.456;2023-10-09T01:05:46;2.88;;;2.15;;
16870;SDS011;8552;48.120;-1.456;2023-10-09T01:08:20;4.15;;;2.28;;
16870;SDS011;8552;48.120;-1.456;2023-10-09T01:10:55;11.23;;;2.92;;
16870;SDS011;8552;48.120;-1.456;2023-10-09T01:13:34;4.20;;;2.72;;
16870;SDS011;8552;48.120;-1.456;2023-10-09T01:16:16;5.18;;;2.40;;
16870;SDS011;8552;48.120;-1.456;2023-10-09T01:18:50;4.80;;;2.58;;
16870;SDS011;8552;48.120;-1.456;2023-10-09T01:21:18;3.25;;;2.13;;
16870;SDS011;8552;48.120;-1.456;2023-10-09T01:23:52;3.50;;;2.30;;
16870;SDS011;8552;48.120;-1.456;2023-10-09T01:26:31;4.18;;;2.53;;
16870;SDS011;8552;48.120;-1.456;2023-10-09T01:31:47;5.47;;;2.55;;
16870;SDS011;8552;48.120;-1.456;2023-10-09T01:34:19;4.18;;;2.50;;
16870;SDS011;8552;48.120;-1.456;2023-10-09T01:37:06;5.68;;;2.70;;
16870;SDS011;8552;48.120;-1.456;2023-10-09T01:39:54;3.80;;;2.30;;
16870;SDS011;8552;48.120;-1.456;2023-10-09T01:42:26;3.53;;;2.80;;
16870;SDS011;8552;48.120;-1.456;2023-10-09T01:44:54;6.85;;;2.65;;
16870;SDS011;8552;48.120;-1.456;2023-10-09T01:47:20;5.63;;;2.65;;
16870;SDS011;8552;48.120;-1.456;2023-10-09T01:49:47;4.13;;;2.65;;
16870;SDS011;8552;48.120;-1.456;2023-10-09T01:52:18;3.75;;;2.30;;
16870;SDS011;8552;48.120;-1.456;2023-10-09T01:54:45;3.13;;;2.00;;
16870;SDS011;8552;48.120;-1.456;2023-10-09T01:57:15;2.95;;;2.65;;
16870;SDS011;8552;48.120;-1.456;2023-10-09T01:59:47;4.22;;;2.95;;
16870;SDS011;8552;48.120;-1.456;2023-10-09T02:02:14;4.28;;;2.70;;
16870;SDS011;8552;48.120;-1.456;2023-10-09T02:05:10;3.33;;;2.40;;
16870;SDS011;8552;48.120;-1.456;2023-10-09T02:07:49;2.67;;;1.88;;
16870;SDS011;8552;48.120;-1.456;2023-10-09T02:10:21;3.88;;;2.05;;
16870;SDS011;8552;48.120;-1.456;2023-10-09T02:12:58;2.25;;;1.63;;
16870;SDS011;8552;48.120;-1.456;2023-10-09T02:15:31;4.38;;;1.85;;
16870;SDS011;8552;48.120;-1.456;2023-10-09T02:18:06;4.00;;;1.92;;
16870;SDS011;8552;48.120;-1.456;2023-10-09T02:20:48;3.05;;;1.83;;
16870;SDS011;8552;48.120;-1.456;2023-10-09T02:23:29;4.03;;;2.38;;
16870;SDS011;8552;48.120;-1.456;2023-10-09T02:26:07;2.72;;;1.77;;
16870;SDS011;8552;48.120;-1.456;2023-10-09T02:28:34;2.80;;;1.70;;
16870;SDS011;8552;48.120;-1.456;2023-10-09T02:31:11;3.25;;;1.83;;
16870;SDS011;8552;48.120;-1.456;2023-10-09T02:33:38;2.90;;;2.13;;
16870;SDS011;8552;48.120;-1.456;2023-10-09T02:36:08;3.78;;;1.50;;
16870;SDS011;8552;48.120;-1.456;2023-10-09T02:38:34;2.20;;;1.65;;
16870;SDS011;8552;48.120;-1.456;2023-10-09T02:41:05;4.28;;;1.85;;
16870;SDS011;8552;48.120;-1.456;2023-10-09T02:43:32;4.00;;;2.40;;
16870;SDS011;8552;48.120;-1.456;2023-10-09T02:46:02;2.83;;;2.05;;
16870;SDS011;8552;48.120;-1.456;2023-10-09T02:48:39;2.65;;;1.90;;
16870;SDS011;8552;48.120;-1.456;2023-10-09T02:51:10;3.90;;;2.05;;
16870;SDS011;8552;48.120;-1.456;2023-10-09T02:53:42;2.67;;;2.13;;
16870;SDS011;8552;48.120;-1.456;2023-10-09T02:56:08;4.55;;;2.63;;
16870;SDS011;8552;48.120;-1.456;2023-10-09T02:58:38;4.55;;;2.22;;
16870;SDS011;8552;48.120;-1.456;2023-10-09T03:01:08;2.70;;;2.05;;
16870;SDS011;8552;48.120;-1.456;2023-10-09T03:03:35;2.58;;;1.88;;
16870;SDS011;8552;48.120;-1.456;2023-10-09T03:06:03;3.92;;;2.17;;
16870;SDS011;8552;48.120;-1.456;2023-10-09T03:08:35;2.55;;;1.95;;
16870;SDS011;8552;48.120;-1.456;2023-10-09T03:11:02;3.10;;;2.13;;
16870;SDS011;8552;48.120;-1.456;2023-10-09T03:13:27;3.25;;;2.40;;
16870;SDS011;8552;48.120;-1.456;2023-10-09T03:15:53;3.80;;;2.53;;
16870;SDS011;8552;48.120;-1.456;2023-10-09T03:18:19;3.22;;;2.10;;
16870;SDS011;8552;48.120;-1.456;2023-10-09T03:20:45;6.90;;;2.50;;
16870;SDS011;8552;48.120;-1.456;2023-10-09T03:23:11;4.13;;;2.45;;
16870;SDS011;8552;48.120;-1.456;2023-10-09T03:25:39;6.53;;;2.25;;
16870;SDS011;8552;48.120;-1.456;2023-10-09T03:28:07;3.53;;;2.15;;
16870;SDS011;8552;48.120;-1.456;2023-10-09T03:30:33;3.10;;;2.17;;
16870;SDS011;8552;48.120;-1.456;2023-10-09T03:32:59;3.50;;;2.33;;
16870;SDS011;8552;48.120;-1.456;2023-10-09T03:35:27;3.05;;;2.05;;
16870;SDS011;8552;48.120;-1.456;2023-10-09T03:37:53;4.65;;;2.78;;
16870;SDS011;8552;48.120;-1.456;2023-10-09T03:40:22;6.53;;;3.25;;
16870;SDS011;8552;48.120;-1.456;2023-10-09T03:42:49;3.90;;;2.00;;
16870;SDS011;8552;48.120;-1.456;2023-10-09T03:45:14;2.85;;;2.22;;
16870;SDS011;8552;48.120;-1.456;2023-10-09T03:47:54;3.13;;;1.90;;
16870;SDS011;8552;48.120;-1.456;2023-10-09T03:50:39;3.22;;;1.90;;
16870;SDS011;8552;48.120;-1.456;2023-10-09T03:53:08;2.80;;;1.60;;
16870;SDS011;8552;48.120;-1.456;2023-10-09T03:55:37;3.13;;;2.00;;
16870;SDS011;8552;48.120;-1.456;2023-10-09T03:58:03;2.47;;;1.80;;
16870;SDS011;8552;48.120;-1.456;2023-10-09T04:00:29;2.88;;;2.10;;
16870;SDS011;8552;48.120;-1.456;2023-10-09T04:02:59;2.05;;;1.42;;
16870;SDS011;8552;48.120;-1.456;2023-10-09T04:05:25;3.10;;;1.70;;
16870;SDS011;8552;48.120;-1.456;2023-10-09T04:07:51;2.72;;;2.38;;
16870;SDS011;8552;48.120;-1.456;2023-10-09T04:10:19;3.28;;;1.92;;
16870;SDS011;8552;48.120;-1.456;2023-10-09T04:13:04;3.65;;;1.42;;
16870;SDS011;8552;48.120;-1.456;2023-10-09T04:15:34;2.50;;;1.80;;
16870;SDS011;8552;48.120;-1.456;2023-10-09T04:18:01;4.00;;;1.90;;
16870;SDS011;8552;48.120;-1.456;2023-10-09T04:20:28;2.70;;;1.95;;
16870;SDS011;8552;48.120;-1.456;2023-10-09T04:22:53;2.42;;;1.77;;
16870;SDS011;8552;48.120;-1.456;2023-10-09T04:25:29;4.38;;;1.80;;
16870;SDS011;8552;48.120;-1.456;2023-10-09T04:28:05;4.05;;;2.00;;
16870;SDS011;8552;48.120;-1.456;2023-10-09T04:30:49;3.92;;;2.40;;
16870;SDS011;8552;48.120;-1.456;2023-10-09T04:33:21;3.47;;;1.75;;
16870;SDS011;8552;48.120;-1.456;2023-10-09T04:36:02;2.55;;;1.83;;
16870;SDS011;8552;48.120;-1.456;2023-10-09T04:38:47;3.88;;;2.20;;
16870;SDS011;8552;48.120;-1.456;2023-10-09T04:41:32;4.05;;;2.08;;
16870;SDS011;8552;48.120;-1.456;2023-10-09T04:44:07;3.55;;;1.55;;
16870;SDS011;8552;48.120;-1.456;2023-10-09T04:46:50;4.05;;;1.95;;
16870;SDS011;8552;48.120;-1.456;2023-10-09T04:49:35;1.92;;;1.50;;
16870;SDS011;8552;48.120;-1.456;2023-10-09T04:52:18;2.88;;;1.88;;
16870;SDS011;8552;48.120;-1.456;2023-10-09T04:54:50;2.45;;;1.80;;
16870;SDS011;8552;48.120;-1.456;2023-10-09T05:02:58;3.35;;;2.25;;
16870;SDS011;8552;48.120;-1.456;2023-10-09T05:05:32;2.38;;;1.52;;
16870;SDS011;8552;48.120;-1.456;2023-10-09T05:08:07;2.30;;;1.38;;
16870;SDS011;8552;48.120;-1.456;2023-10-09T05:10:52;1.85;;;1.50;;
16870;SDS011;8552;48.120;-1.456;2023-10-09T05:13:22;4.05;;;2.35;;
16870;SDS011;8552;48.120;-1.456;2023-10-09T05:16:08;3.30;;;2.10;;
16870;SDS011;8552;48.120;-1.456;2023-10-09T05:18:43;2.65;;;1.83;;
16870;SDS011;8552;48.120;-1.456;2023-10-09T05:23:55;2.55;;;2.00;;
16870;SDS011;8552;48.120;-1.456;2023-10-09T05:29:14;3.35;;;2.80;;
16870;SDS011;8552;48.120;-1.456;2023-10-09T05:31:59;3.97;;;2.63;;
16870;SDS011;8552;48.120;-1.456;2023-10-09T05:34:30;4.22;;;2.55;;
16870;SDS011;8552;48.120;-1.456;2023-10-09T05:37:02;4.22;;;2.35;;
16870;SDS011;8552;48.120;-1.456;2023-10-09T05:39:47;5.38;;;2.80;;
16870;SDS011;8552;48.120;-1.456;2023-10-09T05:42:29;3.35;;;2.17;;
16870;SDS011;8552;48.120;-1.456;2023-10-09T05:45:04;3.65;;;2.45;;
16870;SDS011;8552;48.120;-1.456;2023-10-09T05:47:43;4.18;;;2.80;;
16870;SDS011;8552;48.120;-1.456;2023-10-09T05:50:23;4.30;;;2.40;;
16870;SDS011;8552;48.120;-1.456;2023-10-09T05:52:53;2.83;;;2.15;;
16870;SDS011;8552;48.120;-1.456;2023-10-09T05:55:23;4.10;;;2.30;;
16870;SDS011;8552;48.120;-1.456;2023-10-09T05:57:56;4.80;;;3.08;;
16870;SDS011;8552;48.120;-1.456;2023-10-09T06:00:28;4.80;;;2.10;;
16870;SDS011;8552;48.120;-1.456;2023-10-09T06:03:13;2.83;;;2.10;;
16870;SDS011;8552;48.120;-1.456;2023-10-09T06:05:55;3.25;;;2.45;;
16870;SDS011;8552;48.120;-1.456;2023-10-09T06:08:25;4.50;;;2.08;;
16870;SDS011;8552;48.120;-1.456;2023-10-09T06:10:54;5.88;;;2.47;;
16870;SDS011;8552;48.120;-1.456;2023-10-09T06:13:39;3.40;;;2.13;;
16870;SDS011;8552;48.120;-1.456;2023-10-09T06:16:11;4.15;;;2.10;;
16870;SDS011;8552;48.120;-1.456;2023-10-09T06:18:56;2.65;;;2.00;;
16870;SDS011;8552;48.120;-1.456;2023-10-09T06:21:37;3.47;;;2.05;;
16870;SDS011;8552;48.120;-1.456;2023-10-09T06:24:21;3.83;;;1.73;;
16870;SDS011;8552;48.120;-1.456;2023-10-09T06:26:48;3.75;;;3.38;;
16870;SDS011;8552;48.120;-1.456;2023-10-09T06:29:23;7.90;;;3.15;;
16870;SDS011;8552;48.120;-1.456;2023-10-09T06:32:00;5.63;;;2.58;;
16870;SDS011;8552;48.120;-1.456;2023-10-09T06:34:58;3.63;;;2.20;;
16870;SDS011;8552;48.120;-1.456;2023-10-09T06:40:31;4.32;;;2.83;;
16870;SDS011;8552;48.120;-1.456;2023-10-09T06:43:17;3.00;;;2.30;;
16870;SDS011;8552;48.120;-1.456;2023-10-09T06:45:55;3.85;;;2.20;;
16870;SDS011;8552;48.120;-1.456;2023-10-09T06:48:41;4.10;;;2.00;;
16870;SDS011;8552;48.120;-1.456;2023-10-09T06:51:10;6.60;;;2.35;;
16870;SDS011;8552;48.120;-1.456;2023-10-09T06:53:55;5.40;;;2.13;;
16870;SDS011;8552;48.120;-1.456;2023-10-09T06:56:22;3.95;;;2.35;;
16870;SDS011;8552;48.120;-1.456;2023-10-09T06:58:54;2.88;;;2.20;;
16870;SDS011;8552;48.120;-1.456;2023-10-09T07:01:26;3.78;;;2.28;;
16870;SDS011;8552;48.120;-1.456;2023-10-09T07:03:52;4.82;;;2.40;;
16870;SDS011;8552;48.120;-1.456;2023-10-09T07:06:19;6.20;;;2.85;;
16870;SDS011;8552;48.120;-1.456;2023-10-09T07:08:49;5.20;;;2.45;;
16870;SDS011;8552;48.120;-1.456;2023-10-09T07:11:40;4.43;;;2.70;;
16870;SDS011;8552;48.120;-1.456;2023-10-09T07:14:08;3.45;;;2.50;;
16870;SDS011;8552;48.120;-1.456;2023-10-09T07:17:08;3.97;;;2.67;;
16870;SDS011;8552;48.120;-1.456;2023-10-09T07:19:53;9.70;;;3.40;;
16870;SDS011;8552;48.120;-1.456;2023-10-09T07:22:19;3.15;;;2.53;;
16870;SDS011;8552;48.120;-1.456;2023-10-09T07:24:44;6.15;;;3.40;;
16870;SDS011;8552;48.120;-1.456;2023-10-09T07:30:08;7.95;;;3.92;;
16870;SDS011;8552;48.120;-1.456;2023-10-09T07:33:07;6.35;;;4.50;;
16870;SDS011;8552;48.120;-1.456;2023-10-09T07:35:36;8.88;;;3.97;;
16870;SDS011;8552;48.120;-1.456;2023-10-09T07:38:09;9.63;;;4.40;;
16870;SDS011;8552;48.120;-1.456;2023-10-09T07:40:36;7.00;;;5.00;;
16870;SDS011;8552;48.120;-1.456;2023-10-09T07:43:27;9.15;;;4.97;;
16870;SDS011;8552;48.120;-1.456;2023-10-09T07:46:01;7.68;;;5.55;;
16870;SDS011;8552;48.120;-1.456;2023-10-09T07:48:31;7.63;;;5.75;;
16870;SDS011;8552;48.120;-1.456;2023-10-09T07:51:26;9.18;;;6.15;;
16870;SDS011;8552;48.120;-1.456;2023-10-09T07:53:59;13.18;;;6.30;;
16870;SDS011;8552;48.120;-1.456;2023-10-09T07:56:36;10.27;;;5.95;;
16870;SDS011;8552;48.120;-1.456;2023-10-09T07:59:18;13.07;;;6.38;;
16870;SDS011;8552;48.120;-1.456;2023-10-09T08:01:45;12.27;;;7.30;;
16870;SDS011;8552;48.120;-1.456;2023-10-09T08:04:24;9.82;;;6.78;;
16870;SDS011;8552;48.120;-1.456;2023-10-09T08:07:04;9.77;;;6.60;;
16870;SDS011;8552;48.120;-1.456;2023-10-09T08:09:34;12.18;;;7.53;;
16870;SDS011;8552;48.120;-1.456;2023-10-09T08:12:13;13.20;;;8.68;;
16870;SDS011;8552;48.120;-1.456;2023-10-09T08:15:00;13.75;;;10.32;;
16870;SDS011;8552;48.120;-1.456;2023-10-09T08:17:59;14.57;;;9.90;;
16870;SDS011;8552;48.120;-1.456;2023-10-09T08:20:28;16.98;;;12.15;;
16870;SDS011;8552;48.120;-1.456;2023-10-09T08:23:13;20.08;;;13.27;;
16870;SDS011;8552;48.120;-1.456;2023-10-09T08:25:58;19.42;;;13.88;;
16870;SDS011;8552;48.120;-1.456;2023-10-09T08:28:37;18.30;;;13.15;;
16870;SDS011;8552;48.120;-1.456;2023-10-09T08:31:13;22.88;;;14.77;;
16870;SDS011;8552;48.120;-1.456;2023-10-09T08:34:10;22.95;;;15.80;;
16870;SDS011;8552;48.120;-1.456;2023-10-09T08:36:52;21.52;;;14.70;;
16870;SDS011;8552;48.120;-1.456;2023-10-09T08:39:19;24.65;;;15.60;;
16870;SDS011;8552;48.120;-1.456;2023-10-09T08:41:52;24.83;;;16.40;;
16870;SDS011;8552;48.120;-1.456;2023-10-09T08:44:24;22.83;;;16.25;;
16870;SDS011;8552;48.120;-1.456;2023-10-09T08:46:53;25.83;;;16.85;;
16870;SDS011;8552;48.120;-1.456;2023-10-09T08:49:20;30.10;;;18.10;;
16870;SDS011;8552;48.120;-1.456;2023-10-09T08:51:49;36.60;;;20.60;;
16870;SDS011;8552;48.120;-1.456;2023-10-09T08:54:17;34.10;;;19.70;;
16870;SDS011;8552;48.120;-1.456;2023-10-09T08:56:45;32.95;;;20.20;;
16870;SDS011;8552;48.120;-1.456;2023-10-09T08:59:14;33.70;;;22.58;;
16870;SDS011;8552;48.120;-1.456;2023-10-09T09:01:45;35.17;;;22.05;;
16870;SDS011;8552;48.120;-1.456;2023-10-09T09:07:04;35.33;;;22.48;;
16870;SDS011;8552;48.120;-1.456;2023-10-09T09:09:31;35.95;;;22.77;;
16870;SDS011;8552;48.120;-1.456;2023-10-09T09:11:59;37.50;;;25.00;;
16870;SDS011;8552;48.120;-1.456;2023-10-09T09:14:34;39.80;;;24.60;;
16870;SDS011;8552;48.120;-1.456;2023-10-09T09:17:02;39.83;;;25.67;;
16870;SDS011;8552;48.120;-1.456;2023-10-09T09:19:32;38.88;;;23.23;;
16870;SDS011;8552;48.120;-1.456;2023-10-09T09:22:02;35.20;;;24.60;;
16870;SDS011;8552;48.120;-1.456;2023-10-09T09:24:39;35.70;;;22.98;;
16870;SDS011;8552;48.120;-1.456;2023-10-09T09:27:12;38.13;;;24.60;;
16870;SDS011;8552;48.120;-1.456;2023-10-09T09:29:42;42.97;;;24.48;;
16870;SDS011;8552;48.120;-1.456;2023-10-09T09:32:17;37.15;;;23.45;;
16870;SDS011;8552;48.120;-1.456;2023-10-09T09:35:00;37.70;;;25.40;;
16870;SDS011;8552;48.120;-1.456;2023-10-09T09:37:33;31.60;;;22.83;;
16870;SDS011;8552;48.120;-1.456;2023-10-09T09:40:08;39.97;;;24.88;;
16870;SDS011;8552;48.120;-1.456;2023-10-09T09:42:53;35.42;;;23.02;;
16870;SDS011;8552;48.120;-1.456;2023-10-09T09:45:31;35.38;;;22.38;;
16870;SDS011;8552;48.120;-1.456;2023-10-09T09:48:03;27.17;;;19.80;;
16870;SDS011;8552;48.120;-1.456;2023-10-09T09:50:40;29.70;;;21.40;;
16870;SDS011;8552;48.120;-1.456;2023-10-09T09:53:16;30.02;;;19.55;;
16870;SDS011;8552;48.120;-1.456;2023-10-09T09:55:49;29.77;;;20.50;;
16870;SDS011;8552;48.120;-1.456;2023-10-09T09:58:25;26.65;;;17.23;;
16870;SDS011;8552;48.120;-1.456;2023-10-09T10:01:10;24.67;;;16.42;;
16870;SDS011;8552;48.120;-1.456;2023-10-09T10:04:05;19.48;;;14.07;;
16870;SDS011;8552;48.120;-1.456;2023-10-09T10:06:45;18.65;;;13.55;;
16870;SDS011;8552;48.120;-1.456;2023-10-09T10:12:05;13.52;;;9.48;;
16870;SDS011;8552;48.120;-1.456;2023-10-09T10:18:13;12.02;;;7.57;;
16870;SDS011;8552;48.120;-1.456;2023-10-09T10:20:32;11.05;;;7.70;;
16870;SDS011;8552;48.120;-1.456;2023-10-09T10:23:41;12.07;;;6.90;;
16870;SDS011;8552;48.120;-1.456;2023-10-09T10:26:18;9.25;;;6.55;;
16870;SDS011;8552;48.120;-1.456;2023-10-09T10:34:19;11.77;;;6.45;;
16870;SDS011;8552;48.120;-1.456;2023-10-09T10:36:48;9.70;;;5.97;;
16870;SDS011;8552;48.120;-1.456;2023-10-09T10:39:17;8.25;;;5.53;;
16870;SDS011;8552;48.120;-1.456;2023-10-09T10:41:56;8.23;;;5.53;;
16870;SDS011;8552;48.120;-1.456;2023-10-09T10:44:30;10.15;;;5.50;;
16870;SDS011;8552;48.120;-1.456;2023-10-09T10:47:07;7.50;;;4.60;;
16870;SDS011;8552;48.120;-1.456;2023-10-09T10:49:49;7.55;;;5.00;;
16870;SDS011;8552;48.120;-1.456;2023-10-09T10:52:19;7.45;;;4.45;;
16870;SDS011;8552;48.120;-1.456;2023-10-09T10:54:46;5.05;;;3.90;;
16870;SDS011;8552;48.120;-1.456;2023-10-09T10:57:19;7.15;;;4.05;;
16870;SDS011;8552;48.120;-1.456;2023-10-09T10:59:55;5.95;;;3.78;;
16870;SDS011;8552;48.120;-1.456;2023-10-09T11:02:51;7.68;;;3.97;;
16870;SDS011;8552;48.120;-1.456;2023-10-09T11:05:17;6.32;;;3.72;;
16870;SDS011;8552;48.120;-1.456;2023-10-09T11:07:49;5.38;;;3.75;;
16870;SDS011;8552;48.120;-1.456;2023-10-09T11:10:21;5.85;;;3.25;;
16870;SDS011;8552;48.120;-1.456;2023-10-09T11:12:56;6.47;;;3.45;;
16870;SDS011;8552;48.120;-1.456;2023-10-09T11:15:35;6.95;;;3.20;;
16870;SDS011;8552;48.120;-1.456;2023-10-09T11:18:12;5.20;;;3.28;;
16870;SDS011;8552;48.120;-1.456;2023-10-09T11:20:48;4.22;;;2.70;;
16870;SDS011;8552;48.120;-1.456;2023-10-09T11:23:24;5.18;;;3.35;;
16870;SDS011;8552;48.120;-1.456;2023-10-09T11:25:59;6.65;;;2.83;;
16870;SDS011;8552;48.120;-1.456;2023-10-09T11:29:05;6.20;;;3.25;;
16870;SDS011;8552;48.120;-1.456;2023-10-09T11:31:38;5.13;;;2.42;;
16870;SDS011;8552;48.120;-1.456;2023-10-09T11:34:17;4.30;;;2.92;;
16870;SDS011;8552;48.120;-1.456;2023-10-09T11:36:54;3.38;;;2.63;;
16870;SDS011;8552;48.120;-1.456;2023-10-09T11:39:37;5.45;;;2.85;;
16870;SDS011;8552;48.120;-1.456;2023-10-09T11:42:24;4.70;;;2.92;;
16870;SDS011;8552;48.120;-1.456;2023-10-09T11:45:21;3.92;;;2.90;;
16870;SDS011;8552;48.120;-1.456;2023-10-09T11:47:55;6.57;;;3.05;;
16870;SDS011;8552;48.120;-1.456;2023-10-09T11:50:46;4.30;;;2.50;;
16870;SDS011;8552;48.120;-1.456;2023-10-09T11:53:16;12.52;;;3.03;;
16870;SDS011;8552;48.120;-1.456;2023-10-09T11:55:58;9.07;;;3.17;;
16870;SDS011;8552;48.120;-1.456;2023-10-09T11:58:24;4.35;;;2.95;;
16870;SDS011;8552;48.120;-1.456;2023-10-09T12:03:29;4.82;;;3.40;;
16870;SDS011;8552;48.120;-1.456;2023-10-09T12:05:56;5.28;;;3.25;;
16870;SDS011;8552;48.120;-1.456;2023-10-09T12:08:31;6.75;;;3.50;;
16870;SDS011;8552;48.120;-1.456;2023-10-09T12:10:57;4.13;;;2.65;;
16870;SDS011;8552;48.120;-1.456;2023-10-09T12:13:23;6.70;;;3.00;;
16870;SDS011;8552;48.120;-1.456;2023-10-09T12:15:50;4.03;;;2.78;;
16870;SDS011;8552;48.120;-1.456;2023-10-09T12:18:19;7.13;;;2.90;;
16870;SDS011;8552;48.120;-1.456;2023-10-09T12:20:46;4.88;;;2.83;;
16870;SDS011;8552;48.120;-1.456;2023-10-09T12:23:16;4.13;;;2.45;;
16870;SDS011;8552;48.120;-1.456;2023-10-09T12:25:47;4.07;;;2.78;;
16870;SDS011;8552;48.120;-1.456;2023-10-09T12:28:14;6.40;;;3.50;;
16870;SDS011;8552;48.120;-1.456;2023-10-09T12:30:45;4.80;;;3.17;;
16870;SDS011;8552;48.120;-1.456;2023-10-09T12:33:15;4.05;;;2.70;;
16870;SDS011;8552;48.120;-1.456;2023-10-09T12:35:41;5.20;;;3.10;;
16870;SDS011;8552;48.120;-1.456;2023-10-09T12:38:10;3.97;;;2.60;;
16870;SDS011;8552;48.120;-1.456;2023-10-09T12:40:37;4.57;;;2.75;;
16870;SDS011;8552;48.120;-1.456;2023-10-09T12:43:06;4.75;;;2.88;;
16870;SDS011;8552;48.120;-1.456;2023-10-09T12:45:40;5.85;;;3.03;;
16870;SDS011;8552;48.120;-1.456;2023-10-09T12:48:06;5.13;;;2.65;;
16870;SDS011;8552;48.120;-1.456;2023-10-09T12:50:34;4.72;;;2.80;;
16870;SDS011;8552;48.120;-1.456;2023-10-09T12:53:06;4.63;;;2.50;;
16870;SDS011;8552;48.120;-1.456;2023-10-09T12:55:36;6.05;;;3.05;;
16870;SDS011;8552;48.120;-1.456;2023-10-09T12:58:05;5.15;;;2.60;;
16870;SDS011;8552;48.120;-1.456;2023-10-09T13:00:38;4.10;;;2.05;;
16870;SDS011;8552;48.120;-1.456;2023-10-09T13:03:09;5.15;;;2.75;;
16870;SDS011;8552;48.120;-1.456;2023-10-09T13:05:48;4.97;;;3.17;;
16870;SDS011;8552;48.120;-1.456;2023-10-09T13:08:25;6.63;;;3.35;;
16870;SDS011;8552;48.120;-1.456;2023-10-09T13:11:02;6.60;;;3.00;;
16870;SDS011;8552;48.120;-1.456;2023-10-09T13:13:41;5.35;;;3.40;;
16870;SDS011;8552;48.120;-1.456;2023-10-09T13:16:12;3.75;;;2.65;;
16870;SDS011;8552;48.120;-1.456;2023-10-09T13:18:52;7.50;;;2.83;;
16870;SDS011;8552;48.120;-1.456;2023-10-09T13:21:18;4.25;;;2.90;;
16870;SDS011;8552;48.120;-1.456;2023-10-09T13:23:45;6.63;;;2.95;;
16870;SDS011;8552;48.120;-1.456;2023-10-09T13:26:20;4.40;;;2.90;;
16870;SDS011;8552;48.120;-1.456;2023-10-09T13:28:51;6.03;;;3.13;;
16870;SDS011;8552;48.120;-1.456;2023-10-09T13:31:17;5.85;;;3.30;;
16870;SDS011;8552;48.120;-1.456;2023-10-09T13:33:46;5.45;;;3.28;;
16870;SDS011;8552;48.120;-1.456;2023-10-09T13:36:13;9.20;;;3.67;;
16870;SDS011;8552;48.120;-1.456;2023-10-09T13:39:06;7.00;;;3.85;;
16870;SDS011;8552;48.120;-1.456;2023-10-09T13:41:57;4.28;;;3.08;;
16870;SDS011;8552;48.120;-1.456;2023-10-09T13:44:27;6.75;;;3.17;;
16870;SDS011;8552;48.120;-1.456;2023-10-09T13:46:53;5.47;;;3.35;;
16870;SDS011;8552;48.120;-1.456;2023-10-09T13:49:20;5.53;;;3.28;;
16870;SDS011;8552;48.120;-1.456;2023-10-09T13:51:48;7.80;;;3.78;;
16870;SDS011;8552;48.120;-1.456;2023-10-09T13:54:16;6.00;;;4.03;;
16870;SDS011;8552;48.120;-1.456;2023-10-09T13:57:07;6.93;;;3.38;;
16870;SDS011;8552;48.120;-1.456;2023-10-09T13:59:35;6.10;;;3.60;;
16870;SDS011;8552;48.120;-1.456;2023-10-09T14:02:07;5.45;;;3.85;;
16870;SDS011;8552;48.120;-1.456;2023-10-09T14:04:41;5.95;;;3.55;;
16870;SDS011;8552;48.120;-1.456;2023-10-09T14:07:08;6.55;;;3.60;;
16870;SDS011;8552;48.120;-1.456;2023-10-09T14:09:34;6.90;;;3.42;;
16870;SDS011;8552;48.120;-1.456;2023-10-09T14:12:03;5.85;;;3.70;;
16870;SDS011;8552;48.120;-1.456;2023-10-09T14:14:40;6.70;;;3.78;;
16870;SDS011;8552;48.120;-1.456;2023-10-09T14:17:20;6.78;;;3.92;;
16870;SDS011;8552;48.120;-1.456;2023-10-09T14:19:50;7.30;;;4.60;;
16870;SDS011;8552;48.120;-1.456;2023-10-09T14:22:17;9.07;;;4.15;;
16870;SDS011;8552;48.120;-1.456;2023-10-09T14:24:45;6.03;;;3.65;;
16870;SDS011;8552;48.120;-1.456;2023-10-09T14:27:12;6.43;;;3.95;;
16870;SDS011;8552;48.120;-1.456;2023-10-09T14:29:48;6.50;;;3.75;;
16870;SDS011;8552;48.120;-1.456;2023-10-09T14:32:14;8.02;;;4.20;;
16870;SDS011;8552;48.120;-1.456;2023-10-09T14:34:41;6.20;;;4.53;;
16870;SDS011;8552;48.120;-1.456;2023-10-09T14:37:19;10.35;;;4.22;;
16870;SDS011;8552;48.120;-1.456;2023-10-09T14:39:46;8.90;;;5.32;;
16870;SDS011;8552;48.120;-1.456;2023-10-09T14:42:16;7.75;;;4.63;;
16870;SDS011;8552;48.120;-1.456;2023-10-09T14:44:43;8.10;;;5.45;;
16870;SDS011;8552;48.120;-1.456;2023-10-09T14:47:12;11.55;;;4.80;;
16870;SDS011;8552;48.120;-1.456;2023-10-09T14:49:39;7.63;;;4.13;;
16870;SDS011;8552;48.120;-1.456;2023-10-09T14:52:12;5.35;;;3.90;;
16870;SDS011;8552;48.120;-1.456;2023-10-09T14:54:45;5.75;;;3.92;;
16870;SDS011;8552;48.120;-1.456;2023-10-09T14:57:12;8.63;;;5.03;;
16870;SDS011;8552;48.120;-1.456;2023-10-09T14:59:42;6.03;;;3.72;;
16870;SDS011;8552;48.120;-1.456;2023-10-09T15:02:09;5.53;;;3.63;;
16870;SDS011;8552;48.120;-1.456;2023-10-09T15:04:37;6.10;;;3.72;;
16870;SDS011;8552;48.120;-1.456;2023-10-09T15:07:03;6.55;;;4.28;;
16870;SDS011;8552;48.120;-1.456;2023-10-09T15:09:35;6.93;;;4.30;;
16870;SDS011;8552;48.120;-1.456;2023-10-09T15:12:01;8.25;;;3.70;;
16870;SDS011;8552;48.120;-1.456;2023-10-09T15:14:27;6.75;;;3.58;;
16870;SDS011;8552;48.120;-1.456;2023-10-09T15:16:53;5.32;;;3.97;;
16870;SDS011;8552;48.120;-1.456;2023-10-09T15:19:19;6.47;;;4.47;;
16870;SDS011;8552;48.120;-1.456;2023-10-09T15:21:54;5.80;;;3.75;;
16870;SDS011;8552;48.120;-1.456;2023-10-09T15:24:20;6.15;;;4.22;;
16870;SDS011;8552;48.120;-1.456;2023-10-09T15:26:46;7.05;;;3.60;;
16870;SDS011;8552;48.120;-1.456;2023-10-09T15:29:17;6.35;;;3.97;;
16870;SDS011;8552;48.120;-1.456;2023-10-09T15:31:48;9.30;;;4.90;;
16870;SDS011;8552;48.120;-1.456;2023-10-09T15:34:15;7.80;;;4.50;;
16870;SDS011;8552;48.120;-1.456;2023-10-09T15:36:43;6.85;;;4.05;;
16870;SDS011;8552;48.120;-1.456;2023-10-09T15:39:12;5.35;;;3.70;;
16870;SDS011;8552;48.120;-1.456;2023-10-09T15:41:38;7.50;;;4.00;;
16870;SDS011;8552;48.120;-1.456;2023-10-09T15:44:04;7.13;;;3.72;;
16870;SDS011;8552;48.120;-1.456;2023-10-09T15:46:31;6.88;;;3.95;;
16870;SDS011;8552;48.120;-1.456;2023-10-09T15:48:59;7.03;;;4.25;;
16870;SDS011;8552;48.120;-1.456;2023-10-09T15:51:26;10.45;;;4.53;;
16870;SDS011;8552;48.120;-1.456;2023-10-09T15:53:52;7.82;;;4.20;;
16870;SDS011;8552;48.120;-1.456;2023-10-09T15:56:18;9.65;;;4.22;;
16870;SDS011;8552;48.120;-1.456;2023-10-09T15:58:46;7.35;;;4.10;;